Time;durP1;ratioP1;P1;durP2;ratioP2;P2;SDS_P1;SDS_P2;PMS_P1;PMS_P2;Temp;Humidity;BMP_temperature;BMP_pressure;BME280_temperature;BME280_humidity;BME280_pressure;Samples;Min_cycle;Max_cycle;Signal;HPM_P1;HPM_P2
2022/01/14 00:00:55;;;;;;;104.05;41.13;;;4.70;81.00;;;;;;5039280;28;20057;-80
2022/01/14 00:03:20;;;;;;;95.95;39.03;;;4.70;81.30;;;;;;5040443;28;20033;-80
2022/01/14 00:05:46;;;;;;;98.40;41.00;;;4.70;81.10;;;;;;5042904;28;20116;-81
2022/01/14 00:08:12;;;;;;;98.03;39.85;;;4.70;81.00;;;;;;5043770;28;20032;-80
2022/01/14 00:10:40;;;;;;;102.47;41.78;;;4.80;80.70;;;;;;5044802;28;20040;-81
2022/01/14 00:13:16;;;;;;;97.15;40.17;;;4.80;80.70;;;;;;5044743;28;20116;-80
2022/01/14 00:15:41;;;;;;;101.43;41.17;;;4.80;80.90;;;;;;5043793;28;20029;-81
2022/01/14 00:18:07;;;;;;;109.65;41.72;;;4.80;80.70;;;;;;5041736;28;20036;-81
2022/01/14 00:20:33;;;;;;;103.07;42.15;;;4.70;80.70;;;;;;5041807;28;20075;-81
2022/01/14 00:23:00;;;;;;;105.43;42.08;;;4.70;81.60;;;;;;5044099;28;20478;-80
2022/01/14 00:33:26;;;;;;;93.70;40.60;;;4.60;81.60;;;;;;5035533;28;20040;-80
2022/01/14 00:35:52;;;;;;;100.72;41.03;;;4.60;82.20;;;;;;5044994;28;20025;-79
2022/01/14 00:38:18;;;;;;;105.78;39.53;;;4.50;82.30;;;;;;5046246;28;20032;-80
2022/01/14 00:40:44;;;;;;;104.45;41.25;;;4.40;82.90;;;;;;5047979;28;20025;-80
2022/01/14 00:43:10;;;;;;;109.95;41.78;;;4.40;82.80;;;;;;5047390;28;20033;-80
2022/01/14 00:45:37;;;;;;;104.90;41.40;;;4.50;83.20;;;;;;5044396;28;20037;-81
2022/01/14 00:48:03;;;;;;;100.18;40.25;;;4.50;83.20;;;;;;5044897;28;20057;-81
2022/01/14 00:50:29;;;;;;;106.40;41.65;;;4.50;83.00;;;;;;5047716;28;20074;-80
2022/01/14 00:52:55;;;;;;;113.93;42.55;;;4.40;83.20;;;;;;5046837;28;20028;-81
2022/01/14 00:55:29;;;;;;;111.20;42.58;;;4.30;83.30;;;;;;5045545;28;20036;-81
2022/01/14 01:00:42;;;;;;;107.18;42.25;;;4.30;83.70;;;;;;5047515;28;20503;-81
2022/01/14 01:03:08;;;;;;;115.75;43.60;;;4.20;84.00;;;;;;5042183;28;20033;-84
2022/01/14 01:05:34;;;;;;;111.75;44.08;;;4.30;84.30;;;;;;5050832;28;20037;-80
2022/01/14 01:08:07;;;;;;;108.15;42.78;;;4.20;84.40;;;;;;5048880;28;20463;-79
2022/01/14 01:10:34;;;;;;;113.75;43.60;;;4.10;84.90;;;;;;5051260;28;20036;-79
2022/01/14 01:13:09;;;;;;;114.45;43.83;;;4.20;84.60;;;;;;5052826;28;20029;-80
2022/01/14 01:15:35;;;;;;;107.45;43.42;;;4.10;84.60;;;;;;5046992;28;20117;-79
2022/01/14 01:18:01;;;;;;;107.15;40.05;;;4.10;85.10;;;;;;5054716;28;20469;-79
2022/01/14 01:20:26;;;;;;;107.82;40.92;;;4.10;85.20;;;;;;5052136;28;20040;-79
2022/01/14 01:22:54;;;;;;;95.53;40.35;;;4.10;85.20;;;;;;5054271;28;20025;-79
2022/01/14 01:25:23;;;;;;;106.47;40.03;;;4.00;85.40;;;;;;5053432;28;20487;-79
2022/01/14 01:27:50;;;;;;;104.97;42.10;;;4.00;85.60;;;;;;5051993;28;20448;-79
2022/01/14 01:30:38;;;;;;;110.80;43.17;;;4.10;85.40;;;;;;5051479;28;20076;-79
2022/01/14 01:33:05;;;;;;;100.43;39.03;;;4.10;85.10;;;;;;5043612;28;20047;-79
2022/01/14 01:35:31;;;;;;;105.97;41.03;;;4.10;85.20;;;;;;5051925;28;20096;-79
2022/01/14 01:37:57;;;;;;;97.35;38.95;;;4.10;85.40;;;;;;5053339;28;20084;-79
2022/01/14 01:40:25;;;;;;;105.35;40.30;;;4.10;85.50;;;;;;5053971;28;20083;-79
2022/01/14 01:42:52;;;;;;;108.78;40.78;;;4.20;85.30;;;;;;5051173;28;20112;-79
2022/01/14 01:45:25;;;;;;;101.13;41.22;;;4.00;85.20;;;;;;5051442;28;20466;-79
2022/01/14 01:47:55;;;;;;;110.63;41.92;;;4.20;85.40;;;;;;5051445;28;20067;-79
2022/01/14 01:50:27;;;;;;;100.05;41.70;;;4.20;84.60;;;;;;5051732;28;20040;-79
2022/01/14 01:52:54;;;;;;;107.95;41.15;;;4.20;85.00;;;;;;5053693;28;20136;-79
2022/01/14 01:55:21;;;;;;;104.63;41.80;;;4.20;84.80;;;;;;5054820;28;20033;-79
2022/01/14 01:57:48;;;;;;;107.65;41.47;;;4.20;84.90;;;;;;5052572;28;20025;-79
2022/01/14 02:00:17;;;;;;;104.97;40.40;;;4.20;85.00;;;;;;5053234;28;20044;-79
2022/01/14 02:02:45;;;;;;;101.13;41.08;;;4.20;84.70;;;;;;5052722;28;20037;-80
2022/01/14 02:05:11;;;;;;;104.93;40.28;;;4.10;84.90;;;;;;5051631;28;20071;-79
2022/01/14 02:07:38;;;;;;;103.03;41.30;;;4.10;85.40;;;;;;5054629;28;20105;-79
2022/01/14 02:10:05;;;;;;;100.88;41.30;;;4.00;85.10;;;;;;5051712;28;20032;-79
2022/01/14 02:12:36;;;;;;;110.05;41.65;;;4.00;85.50;;;;;;5051098;28;20528;-79
2022/01/14 02:15:26;;;;;;;107.85;39.92;;;4.00;85.90;;;;;;5051494;28;20044;-79
2022/01/14 02:18:27;;;;;;;101.57;40.63;;;4.00;86.00;;;;;;5051192;28;20112;-79
2022/01/14 02:23:26;;;;;;;100.13;40.25;;;3.90;86.50;;;;;;5044763;28;20110;-79
2022/01/14 02:25:51;;;;;;;100.40;41.28;;;4.00;86.60;;;;;;5052756;28;20021;-80
2022/01/14 02:28:18;;;;;;;98.97;38.35;;;4.00;86.20;;;;;;5051593;28;20040;-80
2022/01/14 02:30:45;;;;;;;99.65;40.15;;;4.00;86.30;;;;;;5050728;28;20107;-79
2022/01/14 02:33:13;;;;;;;110.70;40.60;;;4.00;86.40;;;;;;5043835;28;20108;-79
2022/01/14 02:35:40;;;;;;;102.85;42.70;;;3.90;86.30;;;;;;5053075;28;20694;-79
2022/01/14 02:38:09;;;;;;;112.18;40.67;;;4.10;86.30;;;;;;5052379;28;20037;-79
2022/01/14 02:40:36;;;;;;;98.38;40.08;;;3.90;86.50;;;;;;5049739;28;20024;-79
2022/01/14 02:43:02;;;;;;;105.60;41.08;;;4.00;86.80;;;;;;5052643;28;20033;-79
2022/01/14 02:45:32;;;;;;;97.40;41.60;;;3.80;86.30;;;;;;5053062;28;20124;-79
2022/01/14 02:47:58;;;;;;;103.38;41.10;;;3.90;87.00;;;;;;5052676;28;20025;-80
2022/01/14 02:50:25;;;;;;;104.30;41.42;;;3.90;86.70;;;;;;5052538;28;20513;-80
2022/01/14 02:55:19;;;;;;;108.32;42.42;;;3.90;86.80;;;;;;5053320;28;20109;-79
2022/01/14 02:57:47;;;;;;;110.57;41.40;;;3.90;86.70;;;;;;5052341;28;20503;-79
2022/01/14 03:00:14;;;;;;;108.10;40.17;;;3.90;86.80;;;;;;5052466;28;20028;-79
2022/01/14 03:02:48;;;;;;;104.15;40.25;;;3.90;86.50;;;;;;5052496;28;20076;-79
2022/01/14 03:05:20;;;;;;;107.18;39.60;;;3.80;86.60;;;;;;5044341;28;20029;-79
2022/01/14 03:07:47;;;;;;;113.00;42.40;;;3.90;87.00;;;;;;5052609;28;20449;-79
2022/01/14 03:10:14;;;;;;;103.90;40.90;;;3.90;86.90;;;;;;5052876;28;20025;-79
2022/01/14 03:12:41;;;;;;;106.72;40.55;;;3.80;87.00;;;;;;5052183;28;20128;-79
2022/01/14 03:15:08;;;;;;;113.53;42.05;;;3.80;86.70;;;;;;5052287;28;20514;-79
2022/01/14 03:17:34;;;;;;;101.75;41.28;;;3.80;86.90;;;;;;5052386;28;20108;-79
2022/01/14 03:20:02;;;;;;;101.53;40.08;;;3.80;87.10;;;;;;5052027;28;20088;-80
2022/01/14 03:22:35;;;;;;;106.05;41.83;;;3.80;87.10;;;;;;5053284;28;20403;-79
2022/01/14 03:27:49;;;;;;;106.60;40.25;;;3.80;87.70;;;;;;5052176;28;20047;-80
2022/01/14 03:30:15;;;;;;;98.03;41.00;;;3.70;87.30;;;;;;5051890;28;20495;-79
2022/01/14 03:32:42;;;;;;;105.00;40.35;;;3.80;87.30;;;;;;5052027;28;20380;-79
2022/01/14 03:35:10;;;;;;;106.20;42.85;;;3.70;87.20;;;;;;5050277;28;20109;-79
2022/01/14 03:37:36;;;;;;;174.15;59.67;;;3.60;87.70;;;;;;5047525;28;20028;-80
2022/01/14 03:40:04;;;;;;;112.03;45.65;;;3.70;88.00;;;;;;5051121;28;20086;-79
2022/01/14 03:42:30;;;;;;;108.57;42.28;;;3.70;87.90;;;;;;5051570;28;20403;-79
2022/01/14 03:47:56;;;;;;;107.97;40.42;;;3.60;87.60;;;;;;5937172;22;20434;-79
2022/01/14 03:50:22;;;;;;;106.60;41.47;;;3.60;88.50;;;;;;5143315;23;20064;-79
2022/01/14 03:52:47;;;;;;;117.53;41.95;;;3.60;88.50;;;;;;5009714;28;20034;-79
2022/01/14 03:55:13;;;;;;;103.15;40.05;;;3.60;88.70;;;;;;5029721;28;20060;-79
2022/01/14 03:57:39;;;;;;;110.45;43.20;;;3.60;88.60;;;;;;5023705;28;20112;-79
2022/01/14 04:00:05;;;;;;;112.75;41.08;;;3.70;88.90;;;;;;5019081;28;20219;-79
2022/01/14 04:02:31;;;;;;;106.03;41.83;;;3.70;88.80;;;;;;5016747;28;20022;-79
2022/01/14 04:04:58;;;;;;;115.28;41.97;;;3.70;88.60;;;;;;5016730;28;20053;-79
2022/01/14 04:07:24;;;;;;;105.97;41.22;;;3.70;88.90;;;;;;5024010;28;20014;-79
2022/01/14 04:09:49;;;;;;;111.60;41.90;;;3.70;88.90;;;;;;5023621;28;20125;-79
2022/01/14 04:12:28;;;;;;;98.90;38.85;;;3.70;89.00;;;;;;5020096;28;20557;-79
2022/01/14 04:17:20;;;;;;;106.55;41.55;;;3.70;88.90;;;;;;5016500;28;20053;-80
2022/01/14 04:19:45;;;;;;;107.88;40.67;;;3.80;89.10;;;;;;5017986;28;20036;-78
2022/01/14 04:22:11;;;;;;;113.80;42.85;;;3.70;88.80;;;;;;5023074;28;20025;-79
2022/01/14 04:24:36;;;;;;;121.18;45.55;;;3.70;88.80;;;;;;5021104;28;20044;-79
2022/01/14 04:27:02;;;;;;;115.97;45.35;;;3.70;89.50;;;;;;5015248;28;20026;-79
2022/01/14 04:29:28;;;;;;;120.18;50.20;;;3.70;89.50;;;;;;5009130;28;20447;-79
2022/01/14 04:31:54;;;;;;;122.00;50.80;;;3.70;89.40;;;;;;5009566;28;20064;-79
2022/01/14 04:34:19;;;;;;;128.82;50.75;;;3.60;89.30;;;;;;5012005;28;20034;-79
2022/01/14 04:36:45;;;;;;;123.47;47.40;;;3.60;89.80;;;;;;5009295;28;20034;-79
2022/01/14 04:39:11;;;;;;;115.18;45.92;;;3.60;89.70;;;;;;5009395;28;20503;-79
2022/01/14 04:41:36;;;;;;;111.20;44.22;;;3.60;89.80;;;;;;5010925;28;20037;-79
2022/01/14 04:44:03;;;;;;;117.35;44.22;;;3.50;90.00;;;;;;5010772;28;20022;-79
2022/01/14 04:46:49;;;;;;;114.63;43.55;;;3.50;90.00;;;;;;5021508;28;20021;-79
2022/01/14 04:49:14;;;;;;;113.00;42.70;;;3.50;90.10;;;;;;5016753;28;20060;-80
2022/01/14 04:51:41;;;;;;;108.50;43.25;;;3.50;90.00;;;;;;5013451;28;20500;-79
2022/01/14 04:54:06;;;;;;;119.78;43.10;;;3.30;90.00;;;;;;5016594;28;20030;-80
2022/01/14 04:56:33;;;;;;;108.95;43.00;;;3.50;90.30;;;;;;5017733;28;20029;-79
2022/01/14 04:58:58;;;;;;;105.32;41.03;;;3.50;90.30;;;;;;5017411;28;20053;-79
2022/01/14 05:01:24;;;;;;;116.82;43.53;;;3.40;90.10;;;;;;5019479;28;20029;-79
2022/01/14 05:03:50;;;;;;;130.68;46.10;;;3.40;90.40;;;;;;5011877;28;20026;-79
2022/01/14 05:06:15;;;;;;;118.10;45.35;;;3.40;90.30;;;;;;5015412;28;20030;-79
2022/01/14 05:08:41;;;;;;;116.80;43.63;;;3.40;90.50;;;;;;5015528;28;20022;-80
2022/01/14 05:13:44;;;;;;;119.78;44.35;;;3.30;90.30;;;;;;5018296;28;20029;-79
2022/01/14 05:16:10;;;;;;;124.68;44.03;;;3.30;90.40;;;;;;5015595;28;20116;-79
2022/01/14 05:18:38;;;;;;;114.25;42.90;;;3.20;90.40;;;;;;5010790;28;20496;-79
2022/01/14 05:21:04;;;;;;;131.45;44.47;;;3.10;90.40;;;;;;5019371;28;20028;-79
2022/01/14 05:23:30;;;;;;;123.68;45.38;;;3.10;90.70;;;;;;5014756;28;20022;-79
2022/01/14 05:25:56;;;;;;;120.65;44.17;;;3.00;90.70;;;;;;5018958;28;20033;-79
2022/01/14 05:28:22;;;;;;;129.35;46.35;;;2.90;90.70;;;;;;5020006;28;20032;-79
2022/01/14 05:30:48;;;;;;;130.85;47.67;;;2.80;91.00;;;;;;5018510;28;20029;-79
2022/01/14 05:33:15;;;;;;;114.50;43.40;;;2.90;91.10;;;;;;5015378;28;20037;-80
2022/01/14 05:35:41;;;;;;;139.98;49.22;;;2.90;91.20;;;;;;5014053;28;20023;-80
2022/01/14 05:38:07;;;;;;;138.10;49.55;;;2.80;91.00;;;;;;5018004;28;20030;-79
2022/01/14 05:40:33;;;;;;;132.50;46.55;;;2.80;90.80;;;;;;5019156;28;20029;-79
2022/01/14 05:42:59;;;;;;;134.38;48.72;;;2.60;90.90;;;;;;5019077;28;20552;-79
2022/01/14 05:45:25;;;;;;;142.70;48.90;;;2.40;90.90;;;;;;5019707;28;20025;-79
2022/01/14 05:47:52;;;;;;;132.43;48.65;;;2.30;91.20;;;;;;5013764;28;20030;-79
2022/01/14 05:50:23;;;;;;;135.10;49.90;;;2.30;91.60;;;;;;5016981;28;20419;-79
2022/01/14 05:52:49;;;;;;;132.32;47.13;;;2.30;91.80;;;;;;5019353;28;20480;-79
2022/01/14 05:55:17;;;;;;;145.43;49.70;;;2.30;91.70;;;;;;5019719;28;20029;-79
2022/01/14 05:57:43;;;;;;;126.07;47.95;;;2.20;91.50;;;;;;5018845;28;20406;-80
2022/01/14 06:00:12;;;;;;;128.82;48.15;;;2.10;91.70;;;;;;5018005;28;20483;-79
2022/01/14 06:02:38;;;;;;;122.65;48.97;;;2.10;91.60;;;;;;5017564;28;20030;-80
2022/01/14 06:05:04;;;;;;;126.03;46.70;;;1.90;91.50;;;;;;5022826;28;20037;-79
2022/01/14 06:07:29;;;;;;;132.50;48.33;;;1.80;92.00;;;;;;5022879;28;20022;-79
2022/01/14 06:09:55;;;;;;;129.45;47.05;;;1.90;92.40;;;;;;5022277;28;20025;-79
2022/01/14 06:12:21;;;;;;;136.95;50.10;;;2.00;92.70;;;;;;5019442;28;20122;-79
2022/01/14 06:14:46;;;;;;;134.35;47.28;;;2.10;92.70;;;;;;5016991;28;20022;-79
2022/01/14 06:17:12;;;;;;;140.43;49.25;;;2.20;92.60;;;;;;5020918;28;20034;-79
2022/01/14 06:19:38;;;;;;;127.05;46.63;;;2.20;92.50;;;;;;5021780;28;20459;-80
2022/01/14 06:22:03;;;;;;;130.73;47.03;;;2.30;92.50;;;;;;5024889;28;20030;-79
2022/01/14 06:24:29;;;;;;;136.60;46.95;;;2.30;92.30;;;;;;5022097;28;20026;-80
2022/01/14 06:26:55;;;;;;;123.35;46.85;;;2.30;92.20;;;;;;5018824;28;20065;-80
2022/01/14 06:29:22;;;;;;;127.07;46.40;;;2.30;92.20;;;;;;5021841;28;20650;-78
2022/01/14 06:31:48;;;;;;;118.90;45.70;;;2.30;92.20;;;;;;5021591;28;20149;-79
2022/01/14 06:34:14;;;;;;;134.85;46.70;;;2.40;92.30;;;;;;5023360;28;20022;-79
2022/01/14 06:36:41;;;;;;;131.15;48.13;;;2.30;92.10;;;;;;5022532;28;20029;-78
2022/01/14 06:39:08;;;;;;;135.73;47.80;;;2.30;92.30;;;;;;5018287;28;20112;-78
2022/01/14 06:41:34;;;;;;;132.50;49.55;;;2.30;92.30;;;;;;5021295;28;20026;-78
2022/01/14 06:43:59;;;;;;;134.35;47.55;;;2.30;92.20;;;;;;5022858;28;20030;-78
2022/01/14 06:46:25;;;;;;;139.88;49.95;;;2.30;92.20;;;;;;5029280;28;20411;-78
2022/01/14 06:48:51;;;;;;;126.07;48.17;;;2.30;92.20;;;;;;5022307;28;20108;-78
2022/01/14 06:51:16;;;;;;;145.65;51.20;;;2.30;92.40;;;;;;5013953;28;20109;-79
2022/01/14 06:53:42;;;;;;;143.50;49.92;;;2.20;92.20;;;;;;5019286;28;20129;-79
2022/01/14 06:56:11;;;;;;;138.35;50.80;;;2.30;92.50;;;;;;5019291;28;20030;-79
2022/01/14 06:58:37;;;;;;;135.68;50.90;;;2.20;92.50;;;;;;5018496;28;20021;-78
2022/01/14 07:01:04;;;;;;;143.80;51.05;;;2.20;92.40;;;;;;5016081;28;20450;-79
2022/01/14 07:03:29;;;;;;;136.50;51.72;;;2.20;92.90;;;;;;5015851;28;20022;-78
2022/01/14 07:05:55;;;;;;;159.95;55.97;;;2.30;92.50;;;;;;5018667;28;20099;-79
2022/01/14 07:08:21;;;;;;;134.02;50.53;;;2.30;92.40;;;;;;5017304;28;20021;-80
2022/01/14 07:10:46;;;;;;;141.60;51.63;;;2.30;92.50;;;;;;5012079;28;20037;-81
2022/01/14 07:13:12;;;;;;;122.47;48.95;;;2.30;92.50;;;;;;5011569;28;20142;-80
2022/01/14 07:15:38;;;;;;;135.77;50.22;;;2.30;92.60;;;;;;5010099;28;20018;-81
2022/01/14 07:18:03;;;;;;;138.13;51.25;;;2.30;92.20;;;;;;5017340;28;20028;-79
2022/01/14 07:20:29;;;;;;;148.13;50.80;;;2.20;92.30;;;;;;5017551;28;20148;-80
2022/01/14 07:22:55;;;;;;;135.40;50.28;;;2.20;92.40;;;;;;5014248;28;20029;-81
2022/01/14 07:25:21;;;;;;;145.32;48.63;;;2.10;92.40;;;;;;5017481;28;20026;-81
2022/01/14 07:27:48;;;;;;;146.00;48.40;;;2.10;92.70;;;;;;5012253;28;20056;-82
2022/01/14 07:30:15;;;;;;;132.13;48.58;;;2.10;92.80;;;;;;5016340;28;21913;-83
2022/01/14 07:32:41;;;;;;;149.18;51.25;;;2.10;92.70;;;;;;5016452;28;20081;-84
2022/01/14 07:35:07;;;;;;;134.63;51.13;;;2.10;92.50;;;;;;5016368;28;20033;-84
2022/01/14 07:37:33;;;;;;;138.40;50.67;;;2.00;92.20;;;;;;5016786;28;20025;-84
2022/01/14 07:39:58;;;;;;;134.57;50.65;;;1.90;92.60;;;;;;5020218;28;20026;-81
2022/01/14 07:42:24;;;;;;;146.40;51.13;;;2.00;93.10;;;;;;5015517;28;20048;-78
2022/01/14 07:44:50;;;;;;;138.13;53.08;;;2.00;92.90;;;;;;5017980;28;20026;-78
2022/01/14 07:47:16;;;;;;;128.43;49.38;;;2.00;93.10;;;;;;5018676;28;20040;-78
2022/01/14 07:49:42;;;;;;;138.45;49.42;;;2.00;93.30;;;;;;5019552;28;20486;-78
2022/01/14 07:52:07;;;;;;;139.45;50.47;;;2.10;93.10;;;;;;5019830;28;20064;-78
2022/01/14 07:54:33;;;;;;;135.77;49.42;;;2.10;93.20;;;;;;5015918;28;20503;-78
2022/01/14 07:57:00;;;;;;;147.40;50.50;;;2.20;93.10;;;;;;5012320;28;20022;-78
2022/01/14 07:59:32;;;;;;;138.27;50.78;;;2.10;93.10;;;;;;5016768;28;20541;-77
2022/01/14 08:01:59;;;;;;;138.13;50.38;;;2.30;93.30;;;;;;5011197;28;20518;-77
2022/01/14 08:04:26;;;;;;;151.70;54.22;;;2.40;93.20;;;;;;5008330;28;20025;-77
2022/01/14 08:06:54;;;;;;;152.82;54.35;;;2.50;93.10;;;;;;5009373;28;20109;-78
2022/01/14 08:09:20;;;;;;;135.00;51.95;;;2.60;92.80;;;;;;5013240;28;20022;-77
2022/01/14 08:11:46;;;;;;;137.32;51.42;;;2.70;92.50;;;;;;5013449;28;20131;-77
2022/01/14 08:14:13;;;;;;;141.65;50.42;;;2.80;92.40;;;;;;5013752;28;20022;-77
2022/01/14 08:16:39;;;;;;;132.10;52.45;;;2.90;92.60;;;;;;5010008;28;20491;-78
2022/01/14 08:19:05;;;;;;;137.25;52.25;;;3.00;92.10;;;;;;5014475;28;20014;-77
2022/01/14 08:21:31;;;;;;;135.32;52.78;;;3.10;91.80;;;;;;5003833;28;20553;-76
2022/01/14 08:23:57;;;;;;;141.73;53.50;;;3.10;91.50;;;;;;5005336;28;20026;-77
2022/01/14 08:26:23;;;;;;;136.55;50.20;;;3.30;91.80;;;;;;5016413;28;20022;-76
2022/01/14 08:28:48;;;;;;;140.45;50.83;;;3.50;91.40;;;;;;5017752;28;20142;-77
2022/01/14 08:31:16;;;;;;;139.13;48.47;;;4.10;91.00;;;;;;5022744;28;20495;-77
2022/01/14 08:33:46;;;;;;;123.65;47.72;;;6.30;83.90;;;;;;5017506;28;20029;-77
2022/01/14 08:36:12;;;;;;;125.18;50.13;;;8.80;72.10;;;;;;5016546;28;20033;-77
2022/01/14 08:38:38;;;;;;;133.32;51.17;;;10.70;63.10;;;;;;5016837;28;20028;-78
2022/01/14 08:41:05;;;;;;;126.90;48.17;;;12.00;59.00;;;;;;5013055;28;20034;-77
2022/01/14 08:43:31;;;;;;;127.50;48.15;;;13.00;55.90;;;;;;5022311;28;20053;-77
2022/01/14 08:46:02;;;;;;;124.28;48.55;;;13.50;54.90;;;;;;5017176;28;20017;-77
2022/01/14 08:48:30;;;;;;;120.40;49.25;;;13.90;52.80;;;;;;5011667;28;20017;-77
2022/01/14 08:50:56;;;;;;;115.70;47.72;;;14.30;51.40;;;;;;5015175;28;20099;-77
2022/01/14 08:53:22;;;;;;;124.82;50.10;;;14.50;50.50;;;;;;5018340;28;20481;-77
2022/01/14 08:55:48;;;;;;;125.25;52.45;;;14.30;49.50;;;;;;5013097;28;20038;-78
2022/01/14 08:58:14;;;;;;;126.07;54.42;;;14.30;49.50;;;;;;5011914;28;20438;-78
2022/01/14 09:00:40;;;;;;;125.88;53.30;;;13.20;52.20;;;;;;5012528;28;20432;-78
2022/01/14 09:03:06;;;;;;;125.93;53.10;;;11.90;55.70;;;;;;5013003;28;20053;-79
2022/01/14 09:05:33;;;;;;;120.45;52.08;;;10.70;58.10;;;;;;5014741;28;20061;-84
2022/01/14 09:08:00;;;;;;;128.07;54.33;;;9.90;60.20;;;;;;5010535;28;20024;-82
2022/01/14 09:10:26;;;;;;;129.65;52.58;;;9.20;63.30;;;;;;5015491;28;20101;-82
2022/01/14 09:12:51;;;;;;;115.68;52.53;;;8.80;65.00;;;;;;5010587;28;20062;-82
2022/01/14 09:15:18;;;;;;;116.43;51.80;;;8.60;66.20;;;;;;5018361;28;20036;-83
2022/01/14 09:17:43;;;;;;;114.78;51.53;;;8.50;66.70;;;;;;5012256;28;20440;-82
2022/01/14 09:20:10;;;;;;;124.72;51.85;;;8.50;66.90;;;;;;5010382;28;20097;-82
2022/01/14 09:22:36;;;;;;;120.45;51.75;;;8.50;67.10;;;;;;5015005;28;20022;-82
2022/01/14 09:25:07;;;;;;;132.27;52.53;;;8.40;67.50;;;;;;5011976;28;20026;-82
2022/01/14 09:27:33;;;;;;;131.27;53.78;;;8.30;68.00;;;;;;5013115;28;20037;-82
2022/01/14 09:30:05;;;;;;;128.60;54.40;;;8.20;68.00;;;;;;5012710;28;20061;-82
2022/01/14 09:32:31;;;;;;;134.32;54.45;;;8.30;68.10;;;;;;5013902;28;20466;-82
2022/01/14 09:34:56;;;;;;;135.10;56.13;;;8.40;68.10;;;;;;5015447;28;20061;-82
2022/01/14 09:37:23;;;;;;;129.40;54.50;;;8.50;67.70;;;;;;5024925;28;20022;-82
2022/01/14 09:39:48;;;;;;;128.80;52.60;;;8.40;67.50;;;;;;5014884;28;20099;-82
2022/01/14 09:42:15;;;;;;;135.82;55.17;;;8.40;67.80;;;;;;5012858;28;20783;-84
2022/01/14 09:44:42;;;;;;;129.23;53.70;;;8.60;68.10;;;;;;5017705;28;20096;-83
2022/01/14 09:47:08;;;;;;;137.38;54.63;;;8.60;68.10;;;;;;5019116;28;20485;-83
2022/01/14 09:49:34;;;;;;;132.85;54.85;;;8.70;68.00;;;;;;5024265;28;20042;-81
2022/01/14 09:52:00;;;;;;;123.85;50.70;;;8.90;67.40;;;;;;5022721;28;20045;-82
2022/01/14 09:54:26;;;;;;;125.75;50.75;;;9.00;66.80;;;;;;5016412;28;20026;-81
2022/01/14 09:56:52;;;;;;;114.65;49.15;;;9.10;66.40;;;;;;5019129;28;20500;-81
2022/01/14 09:59:19;;;;;;;119.22;49.67;;;9.30;65.80;;;;;;5019359;28;20113;-82
2022/01/14 10:01:46;;;;;;;118.55;48.95;;;9.40;65.30;;;;;;5021832;28;20385;-81
2022/01/14 10:04:21;;;;;;;123.03;49.80;;;9.40;65.10;;;;;;5023424;28;20032;-83
2022/01/14 10:06:57;;;;;;;122.10;51.00;;;9.60;65.10;;;;;;5016313;28;20109;-82
2022/01/14 10:09:39;;;;;;;120.88;51.40;;;9.60;65.00;;;;;;5014396;28;20033;-82
2022/01/14 10:12:17;;;;;;;123.35;50.85;;;9.70;65.20;;;;;;5014670;28;20168;-82
2022/01/14 10:15:00;;;;;;;133.98;55.17;;;9.70;65.00;;;;;;5013927;28;20511;-82
2022/01/14 10:17:41;;;;;;;128.10;51.97;;;9.80;64.70;;;;;;5014309;28;20026;-82
2022/01/14 10:20:08;;;;;;;128.60;54.10;;;9.90;65.00;;;;;;5008190;28;20040;-81
2022/01/14 10:22:39;;;;;;;123.00;52.55;;;10.10;64.70;;;;;;5016083;28;20026;-81
2022/01/14 10:25:08;;;;;;;132.80;57.45;;;10.10;64.60;;;;;;5011333;28;20041;-81
2022/01/14 10:27:37;;;;;;;122.60;51.65;;;10.20;64.10;;;;;;5013640;28;20396;-82
2022/01/14 10:30:15;;;;;;;123.45;51.95;;;10.20;64.30;;;;;;5013556;28;20077;-82
2022/01/14 10:32:42;;;;;;;114.38;47.72;;;10.30;64.10;;;;;;5013613;28;20037;-81
2022/01/14 10:35:12;;;;;;;107.93;48.25;;;10.30;63.70;;;;;;5011596;28;20046;-82
2022/01/14 10:37:38;;;;;;;116.95;47.30;;;10.30;64.10;;;;;;5015343;28;20064;-80
2022/01/14 10:40:17;;;;;;;130.57;51.28;;;10.30;64.30;;;;;;5013089;28;20029;-81
2022/01/14 10:42:44;;;;;;;129.40;51.92;;;10.20;63.90;;;;;;5012069;28;20034;-81
2022/01/14 10:45:21;;;;;;;132.38;52.72;;;10.10;64.40;;;;;;5010818;28;20034;-81
2022/01/14 10:48:01;;;;;;;120.68;50.17;;;10.20;64.70;;;;;;5010917;28;20036;-82
2022/01/14 10:50:31;;;;;;;142.30;55.08;;;10.20;65.10;;;;;;5017559;28;20046;-80
2022/01/14 10:52:57;;;;;;;126.55;50.55;;;10.40;65.60;;;;;;5012764;28;20565;-83
2022/01/14 10:55:48;;;;;;;120.68;48.80;;;10.50;63.80;;;;;;5018802;28;20472;-81
2022/01/14 10:58:17;;;;;;;121.65;49.47;;;10.50;63.90;;;;;;5016071;28;20037;-83
2022/01/14 11:00:45;;;;;;;129.10;53.28;;;10.70;64.20;;;;;;5011284;28;20049;-82
2022/01/14 11:03:11;;;;;;;116.45;50.58;;;10.90;64.20;;;;;;5014360;28;20026;-83
2022/01/14 11:05:38;;;;;;;122.32;53.22;;;10.90;63.50;;;;;;5017961;28;20105;-82
2022/01/14 11:08:04;;;;;;;123.50;52.97;;;11.10;64.10;;;;;;5017088;28;20038;-82
2022/01/14 11:10:33;;;;;;;114.03;53.22;;;11.20;63.10;;;;;;5020751;28;20033;-83
2022/01/14 11:13:01;;;;;;;124.63;56.45;;;11.30;62.80;;;;;;5014501;28;20021;-82
2022/01/14 11:15:28;;;;;;;123.75;55.10;;;11.40;62.40;;;;;;5011783;28;20034;-83
2022/01/14 11:17:56;;;;;;;112.90;49.03;;;11.50;62.40;;;;;;5009320;28;20075;-83
2022/01/14 11:20:30;;;;;;;120.90;49.13;;;11.60;61.90;;;;;;5016705;28;20027;-86
2022/01/14 11:23:14;;;;;;;126.25;51.15;;;11.60;62.00;;;;;;5017778;28;20038;-89
2022/01/14 11:25:45;;;;;;;;;;;11.60;61.00;;;;;;5020070;28;20018;-88
2022/01/14 11:28:15;;;;;;;116.68;48.30;;;11.90;61.00;;;;;;5015385;28;19905;-88
2022/01/14 11:30:42;;;;;;;115.32;49.30;;;11.90;60.80;;;;;;5013559;28;20041;-86
2022/01/14 11:33:09;;;;;;;114.47;51.85;;;12.10;60.10;;;;;;5012298;28;20399;-88
2022/01/14 11:35:37;;;;;;;123.60;50.65;;;12.20;60.50;;;;;;5017730;28;20033;-86
2022/01/14 11:38:23;;;;;;;113.13;50.88;;;12.50;60.00;;;;;;5017906;28;20447;-87
2022/01/14 11:40:50;;;;;;;117.32;49.30;;;12.60;58.90;;;;;;5019160;28;20049;-86
2022/01/14 11:43:43;;;;;;;112.75;49.65;;;12.80;59.20;;;;;;5017095;28;20055;-86
2022/01/14 11:46:13;;;;;;;121.10;50.92;;;13.00;58.50;;;;;;5018262;28;20033;-92
2022/01/14 11:48:48;;;;;;;108.65;46.33;;;13.20;58.40;;;;;;5012041;28;20033;-89
2022/01/14 11:51:17;;;;;;;107.40;46.15;;;13.30;58.00;;;;;;5011908;28;20049;-90
2022/01/14 11:53:54;;;;;;;115.45;48.90;;;13.50;57.60;;;;;;5014891;28;20030;-89
2022/01/14 11:56:44;;;;;;;101.47;44.95;;;13.60;58.10;;;;;;5015503;28;20812;-87
2022/01/14 11:59:19;;;;;;;114.75;47.72;;;13.90;56.30;;;;;;5005792;28;20038;-86
2022/01/14 12:01:50;;;;;;;102.57;45.95;;;13.90;56.30;;;;;;4997908;28;20101;-90
2022/01/14 12:04:16;;;;;;;106.93;45.38;;;14.00;55.80;;;;;;5015057;28;20105;-85
2022/01/14 12:06:51;;;;;;;93.07;43.72;;;14.10;54.90;;;;;;5006600;28;20030;-83
2022/01/14 12:09:18;;;;;;;101.38;46.72;;;14.20;55.70;;;;;;5008824;28;20026;-79
2022/01/14 12:11:44;;;;;;;96.20;44.60;;;14.30;55.70;;;;;;5006355;28;20042;-87
2022/01/14 12:14:12;;;;;;;99.95;43.47;;;14.50;55.00;;;;;;5008885;28;20029;-83
2022/01/14 12:16:49;;;;;;;101.63;45.72;;;14.70;55.50;;;;;;5008747;28;20045;-82
2022/01/14 12:19:17;;;;;;;92.53;42.65;;;14.80;54.60;;;;;;5010671;28;20030;-84
2022/01/14 12:21:43;;;;;;;91.40;44.10;;;15.10;53.70;;;;;;5013852;28;20049;-86
2022/01/14 12:24:15;;;;;;;89.15;43.17;;;15.30;53.00;;;;;;5013877;28;20056;-77
2022/01/14 12:26:41;;;;;;;88.22;42.08;;;15.80;52.60;;;;;;5010315;28;20101;-77
2022/01/14 12:29:13;;;;;;;91.90;43.65;;;17.00;52.00;;;;;;5016051;28;20488;-77
2022/01/14 12:32:01;;;;;;;86.82;44.33;;;19.30;48.30;;;;;;5019116;28;20125;-77
2022/01/14 12:34:27;;;;;;;87.30;41.83;;;21.80;44.20;;;;;;5015937;28;20025;-76
2022/01/14 12:36:53;;;;;;;76.40;39.63;;;23.70;42.10;;;;;;5016774;28;20037;-76
2022/01/14 12:39:18;;;;;;;83.57;39.35;;;24.80;40.20;;;;;;5014379;28;20026;-76
2022/01/14 12:41:44;;;;;;;80.15;41.53;;;25.80;37.50;;;;;;5010460;28;20444;-77
2022/01/14 12:44:10;;;;;;;77.55;38.63;;;26.70;36.90;;;;;;5016046;28;20077;-77
2022/01/14 12:49:16;;;;;;;82.88;39.42;;;27.00;35.60;;;;;;5013809;28;20045;-77
2022/01/14 12:51:41;;;;;;;72.53;34.90;;;27.40;35.60;;;;;;5013874;28;20038;-77
2022/01/14 12:54:09;;;;;;;70.38;37.05;;;26.20;34.70;;;;;;5017925;28;20096;-77
2022/01/14 12:56:37;;;;;;;79.15;41.22;;;24.20;36.70;;;;;;5019003;28;20088;-77
2022/01/14 12:59:14;;;;;;;75.22;40.80;;;23.40;38.20;;;;;;5018919;28;20407;-77